Time;durP1;ratioP1;P1;durP2;ratioP2;P2;SDS_P1;SDS_P2;PMS_P1;PMS_P2;Temp;Humidity;BMP_temperature;BMP_pressure;BME280_temperature;BME280_humidity;BME280_pressure;Samples;Min_cycle;Max_cycle;Signal;HPM_P1;HPM_P2
2022/11/17 00:00:42;;;;;;;43.40;36.53;;;;;;;12.13;100.00;100112.91;2065634;28;20190;-73
2022/11/17 00:01:42;;;;;;;45.00;36.53;;;;;;;12.05;100.00;100096.97;2066605;28;20202;-73
2022/11/17 00:02:43;;;;;;;43.37;34.33;;;;;;;11.39;100.00;99992.78;2067999;28;20224;-73
2022/11/17 00:03:43;;;;;;;43.17;35.83;;;;;;;11.59;100.00;100031.31;2066837;28;20207;-73
2022/11/17 00:04:44;;;;;;;43.63;35.77;;;;;;;12.09;100.00;100111.50;2065888;28;20198;-73
2022/11/17 00:05:44;;;;;;;42.47;35.90;;;;;;;12.15;100.00;100112.47;2066534;28;20202;-73
2022/11/17 00:06:45;;;;;;;45.77;36.50;;;;;;;12.12;100.00;100113.38;2066053;28;20453;-73
2022/11/17 00:07:47;;;;;;;41.70;34.20;;;;;;;12.19;100.00;100107.56;2065961;28;20200;-73
2022/11/17 00:08:48;;;;;;;42.27;33.67;;;;;;;12.19;100.00;100116.66;2066144;28;20186;-73
2022/11/17 00:09:48;;;;;;;41.50;33.00;;;;;;;11.70;100.00;100031.69;2065310;28;20443;-73
2022/11/17 00:10:49;;;;;;;39.10;32.33;;;;;;;12.19;100.00;100105.53;2067225;28;20214;-73
2022/11/17 00:14:31;;;;;;;38.10;31.40;;;;;;;12.19;100.00;100110.34;2065520;28;20404;-73
2022/11/17 00:15:32;;;;;;;39.80;32.63;;;;;;;12.21;100.00;100105.09;2067247;28;20930;-73
2022/11/17 00:16:32;;;;;;;39.43;31.17;;;;;;;12.20;100.00;100109.09;2067054;28;20976;-73
2022/11/17 00:17:32;;;;;;;40.60;33.00;;;;;;;12.20;100.00;100117.44;2066331;28;20201;-73
2022/11/17 00:21:17;;;;;;;38.33;31.77;;;;;;;12.03;100.00;100077.19;2067068;28;20413;-73
2022/11/17 00:22:18;;;;;;;38.93;31.80;;;;;;;12.32;100.00;100113.78;2068025;28;20433;-73
2022/11/17 00:23:18;;;;;;;39.70;33.50;;;;;;;12.30;100.00;100105.88;2066323;28;20553;-73
2022/11/17 00:24:19;;;;;;;42.63;33.97;;;;;;;12.22;100.00;100098.28;2067125;28;20193;-73
2022/11/17 00:25:19;;;;;;;38.80;32.43;;;;;;;12.35;100.00;100118.44;2066242;28;20278;-73
2022/11/17 00:26:23;;;;;;;40.73;32.43;;;;;;;12.35;100.00;100115.66;2066299;28;20577;-73
2022/11/17 00:27:24;;;;;;;38.93;31.47;;;;;;;12.35;100.00;100107.31;2065204;28;20322;-73
2022/11/17 00:28:24;;;;;;;38.00;30.43;;;;;;;12.32;100.00;100103.44;2065621;28;20444;-73
2022/11/17 00:29:25;;;;;;;39.97;32.93;;;;;;;12.32;100.00;100108.22;2066602;28;20249;-73
2022/11/17 00:34:22;;;;;;;39.77;32.50;;;;;;;12.25;100.00;100105.72;2066645;28;21017;-73
2022/11/17 00:35:23;;;;;;;42.93;36.03;;;;;;;12.11;100.00;100079.28;2066754;28;20953;-73
2022/11/17 00:36:24;;;;;;;46.10;35.57;;;;;;;12.15;100.00;100098.56;2065942;28;20251;-73
2022/11/17 00:37:27;;;;;;;45.30;35.97;;;;;;;11.07;100.00;99957.09;2065403;28;20201;-73
2022/11/17 00:38:27;;;;;;;46.17;36.90;;;;;;;12.05;100.00;100114.41;2067084;28;20436;-73
2022/11/17 00:39:28;;;;;;;39.97;33.63;;;;;;;12.08;100.00;100113.50;2066769;28;21384;-73
2022/11/17 00:40:29;;;;;;;42.20;33.63;;;;;;;12.10;100.00;100110.28;2066045;28;20255;-73
2022/11/17 00:41:29;;;;;;;40.03;32.80;;;;;;;11.99;100.00;100098.81;2065666;28;20609;-73
2022/11/17 00:42:30;;;;;;;42.13;35.50;;;;;;;11.62;100.00;100042.28;2066077;28;20209;-73
2022/11/17 00:43:30;;;;;;;44.87;35.90;;;;;;;11.96;100.00;100094.94;2065756;28;20875;-73
2022/11/17 00:44:31;;;;;;;45.43;37.77;;;;;;;11.96;100.00;100097.72;2067043;28;20202;-73
2022/11/17 00:45:31;;;;;;;47.00;38.03;;;;;;;11.96;100.00;100094.94;2065412;28;20663;-73
2022/11/17 00:46:33;;;;;;;44.33;37.03;;;;;;;11.94;100.00;100091.81;2067203;28;20197;-73
2022/11/17 00:47:34;;;;;;;47.13;36.83;;;;;;;11.91;100.00;100089.19;2065530;28;20193;-73
2022/11/17 00:48:35;;;;;;;45.13;36.93;;;;;;;11.80;100.00;100092.38;2066125;28;20456;-73
2022/11/17 00:49:35;;;;;;;47.67;36.60;;;;;;;11.78;100.00;100075.38;2066457;28;20454;-73
2022/11/17 00:50:36;;;;;;;47.07;37.83;;;;;;;11.86;100.00;100086.97;2065302;28;20193;-73
2022/11/17 00:51:37;;;;;;;42.77;36.43;;;;;;;11.87;100.00;100080.97;2066051;28;20237;-73
2022/11/17 00:52:37;;;;;;;43.63;35.60;;;;;;;11.52;100.00;100023.22;2065771;28;20554;-73
2022/11/17 00:53:38;;;;;;;42.67;35.60;;;;;;;11.86;100.00;100078.66;2065217;28;20502;-73
2022/11/17 00:54:38;;;;;;;44.87;37.00;;;;;;;11.87;100.00;100075.44;2066737;28;20193;-73
2022/11/17 00:55:39;;;;;;;44.27;35.33;;;;;;;11.87;100.00;100080.19;2067614;28;20200;-73
2022/11/17 00:56:39;;;;;;;46.13;36.10;;;;;;;11.88;100.00;100079.75;2065984;28;20311;-73
2022/11/17 00:57:41;;;;;;;45.13;35.97;;;;;;;11.86;100.00;100079.44;2065329;28;20686;-73
2022/11/17 00:58:41;;;;;;;46.53;36.93;;;;;;;11.93;100.00;100079.16;2065614;28;20188;-74
2022/11/17 00:59:41;;;;;;;43.40;34.87;;;;;;;11.56;100.00;100029.41;2066666;28;20459;-73
2022/11/17 01:00:42;;;;;;;41.83;35.37;;;;;;;11.95;100.00;100073.91;2065884;28;20299;-73
2022/11/17 01:01:42;;;;;;;42.07;34.17;;;;;;;12.00;100.00;100072.56;2065821;28;20194;-73
2022/11/17 01:02:43;;;;;;;41.47;35.40;;;;;;;12.00;100.00;100072.56;2067102;28;20209;-73
2022/11/17 01:03:43;;;;;;;40.97;33.93;;;;;;;11.38;100.00;99982.88;2066175;28;20323;-73
2022/11/17 01:04:44;;;;;;;41.67;34.17;;;;;;;11.93;100.00;100056.19;2066801;28;20296;-73
2022/11/17 01:05:44;;;;;;;43.33;34.73;;;;;;;11.93;100.00;100058.97;2066095;28;20193;-73
2022/11/17 01:06:47;;;;;;;44.97;36.13;;;;;;;11.91;100.00;100064.97;2065815;28;20227;-73
2022/11/17 01:07:48;;;;;;;41.40;34.47;;;;;;;11.87;100.00;100069.09;2064760;28;20730;-73
2022/11/17 01:08:48;;;;;;;45.13;33.83;;;;;;;11.92;100.00;100068.50;2065313;28;20895;-73
2022/11/17 01:09:49;;;;;;;42.33;33.77;;;;;;;11.92;100.00;100069.28;2065656;28;20272;-73
2022/11/17 01:10:49;;;;;;;41.93;34.63;;;;;;;11.95;100.00;100068.38;2065900;28;20189;-73
2022/11/17 01:11:51;;;;;;;39.80;33.37;;;;;;;11.94;100.00;100066.06;2066476;28;20189;-73
2022/11/17 01:12:52;;;;;;;44.73;34.37;;;;;;;11.95;100.00;100067.59;2065432;28;20197;-73
2022/11/17 01:13:54;;;;;;;40.97;33.57;;;;;;;10.91;100.00;99912.19;2066197;28;20485;-73
2022/11/17 01:14:55;;;;;;;42.43;34.03;;;;;;;11.90;100.00;100077.31;2066251;28;20193;-73
2022/11/17 01:15:59;;;;;;;38.80;33.27;;;;;;;11.56;100.00;100012.75;2066026;28;20436;-73
2022/11/17 01:17:00;;;;;;;41.47;34.13;;;;;;;11.47;100.00;99993.28;2065406;28;20253;-73
2022/11/17 01:18:01;;;;;;;41.20;32.27;;;;;;;11.97;100.00;100062.38;2066277;28;20464;-73
2022/11/17 01:19:02;;;;;;;41.80;33.33;;;;;;;12.03;100.00;100063.31;2067471;28;20683;-73
2022/11/17 01:20:03;;;;;;;42.17;33.60;;;;;;;11.98;100.00;100053.59;2065879;28;20529;-73
2022/11/17 01:21:10;;;;;;;40.87;33.33;;;;;;;11.38;100.00;99963.47;2066431;28;20498;-73
2022/11/17 01:22:11;;;;;;;40.20;33.57;;;;;;;12.06;100.00;100060.44;2067013;28;20667;-73
2022/11/17 01:23:12;;;;;;;40.30;33.13;;;;;;;12.00;100.00;100059.44;2066548;28;20447;-73
2022/11/17 01:24:15;;;;;;;43.07;33.93;;;;;;;12.06;100.00;100070.75;2066000;28;20452;-73
2022/11/17 01:25:15;;;;;;;38.63;33.23;;;;;;;12.08;100.00;100069.06;2066319;28;20631;-73
2022/11/17 01:26:22;;;;;;;38.40;32.43;;;;;;;12.12;100.00;100072.50;2065518;28;20460;-73
2022/11/17 01:27:22;;;;;;;40.40;34.00;;;;;;;12.09;100.00;100064.28;2065077;28;20242;-73
2022/11/17 01:28:23;;;;;;;41.33;32.23;;;;;;;12.03;100.00;100055.78;2065771;28;20547;-73
2022/11/17 01:29:23;;;;;;;41.47;32.73;;;;;;;12.10;100.00;100063.81;2066351;28;20199;-73
2022/11/17 01:30:23;;;;;;;39.23;32.30;;;;;;;12.06;100.00;100060.44;2065616;28;20633;-73
2022/11/17 01:31:27;;;;;;;39.73;33.03;;;;;;;12.10;100.00;100057.50;2067000;28;20204;-73
2022/11/17 01:32:27;;;;;;;40.50;32.80;;;;;;;12.11;100.00;100056.28;2066128;28;20671;-73
2022/11/17 01:33:28;;;;;;;37.83;32.50;;;;;;;11.29;100.00;99921.06;2066349;28;20806;-73
2022/11/17 01:34:29;;;;;;;39.90;32.43;;;;;;;12.08;100.00;100040.50;2067041;28;20288;-73
2022/11/17 01:35:29;;;;;;;37.83;31.77;;;;;;;11.98;100.00;100016.69;2066528;28;20198;-73
2022/11/17 01:37:54;;;;;;;39.67;31.17;;;;;;;12.25;100.00;100048.16;2066135;28;20201;-73
2022/11/17 01:38:55;;;;;;;37.33;31.90;;;;;;;12.21;100.00;100038.41;2064602;28;20477;-73
2022/11/17 01:39:55;;;;;;;39.37;33.43;;;;;;;12.06;100.00;100037.44;2064973;28;20212;-73
2022/11/17 01:41:00;;;;;;;42.10;35.00;;;;;;;11.91;100.00;100019.75;2066297;28;20202;-73
2022/11/17 01:42:04;;;;;;;38.77;32.50;;;;;;;12.13;100.00;100049.03;2065991;28;20195;-73
2022/11/17 01:43:09;;;;;;;39.43;32.37;;;;;;;12.14;100.00;100033.91;2066719;28;20954;-73
2022/11/17 01:44:52;;;;;;;40.93;33.67;;;;;;;12.03;100.00;100016.91;2066981;28;20432;-73
2022/11/17 01:45:52;;;;;;;40.07;33.07;;;;;;;11.94;100.00;100022.41;2065520;28;20451;-73
2022/11/17 01:46:53;;;;;;;38.60;32.37;;;;;;;11.97;100.00;100029.03;2066552;28;20458;-73
2022/11/17 01:47:57;;;;;;;40.50;32.87;;;;;;;12.03;100.00;100030.00;2066174;28;20189;-73
2022/11/17 01:49:13;;;;;;;42.87;34.07;;;;;;;12.09;100.00;100022.63;2065594;28;20190;-73
2022/11/17 01:50:29;;;;;;;42.77;34.23;;;;;;;12.03;100.00;100013.31;2064787;28;20436;-73
2022/11/17 01:51:32;;;;;;;43.57;35.20;;;;;;;11.83;100.00;100002.59;2064987;28;20495;-73
2022/11/17 01:52:35;;;;;;;43.73;36.03;;;;;;;11.83;100.00;100008.16;2066335;28;20455;-73
2022/11/17 01:53:37;;;;;;;40.50;33.33;;;;;;;11.93;100.00;100006.97;2065331;28;20441;-73
2022/11/17 01:54:39;;;;;;;42.80;33.57;;;;;;;11.96;100.00;100011.63;2066330;28;20429;-73
2022/11/17 01:55:45;;;;;;;38.10;32.57;;;;;;;12.04;100.00;100007.31;2067945;28;20716;-73
2022/11/17 01:56:50;;;;;;;40.27;33.60;;;;;;;11.75;100.00;99956.94;2066802;28;20421;-73
2022/11/17 01:57:57;;;;;;;39.23;32.80;;;;;;;12.08;100.00;100004.41;2066374;28;20494;-73
2022/11/17 01:59:04;;;;;;;40.33;33.53;;;;;;;12.09;100.00;100005.97;2065457;28;20476;-73
2022/11/17 02:00:07;;;;;;;37.03;32.47;;;;;;;12.14;100.00;100017.25;2066164;28;22003;-73
2022/11/17 02:01:08;;;;;;;40.97;33.97;;;;;;;12.15;100.00;100012.47;2066548;28;20974;-73
2022/11/17 02:02:08;;;;;;;40.93;34.07;;;;;;;12.11;100.00;100006.28;2065919;28;21042;-73
2022/11/17 02:03:09;;;;;;;40.13;33.80;;;;;;;12.03;100.00;100005.00;2066601;28;20195;-73
2022/11/17 02:04:10;;;;;;;41.73;34.70;;;;;;;12.06;100.00;100009.66;2065342;28;20229;-73
2022/11/17 02:05:19;;;;;;;39.63;34.00;;;;;;;12.04;100.00;100007.31;2067291;28;20328;-73
2022/11/17 02:06:32;;;;;;;42.40;34.73;;;;;;;12.01;100.00;100013.81;2063697;28;20201;-73
2022/11/17 02:07:36;;;;;;;37.90;31.60;;;;;;;11.92;100.00;100002.66;2066225;28;20476;-73
2022/11/17 02:08:40;;;;;;;40.83;32.10;;;;;;;12.02;100.00;100014.56;2066462;28;20538;-73
2022/11/17 02:09:41;;;;;;;36.17;31.57;;;;;;;11.73;100.00;99972.50;2067252;28;20652;-73
2022/11/17 02:10:42;;;;;;;39.50;32.73;;;;;;;11.61;100.00;99942.81;2067621;28;20440;-74
2022/11/17 02:11:43;;;;;;;39.47;32.13;;;;;;;11.59;100.00;99940.50;2067559;28;20452;-73
2022/11/17 02:12:44;;;;;;;38.60;31.80;;;;;;;12.03;100.00;100016.09;2066440;28;20194;-73
2022/11/17 02:13:45;;;;;;;38.13;31.63;;;;;;;12.07;100.00;100002.88;2066533;28;20444;-73
2022/11/17 02:14:48;;;;;;;38.30;32.37;;;;;;;12.06;100.00;99999.34;2068043;28;20970;-73
2022/11/17 02:15:48;;;;;;;42.20;33.43;;;;;;;11.44;100.00;99908.97;2067679;28;20190;-73
2022/11/17 02:16:49;;;;;;;43.33;36.73;;;;;;;12.04;100.00;99996.22;2067472;28;20452;-73
2022/11/17 02:17:51;;;;;;;40.27;33.00;;;;;;;12.03;100.00;99999.44;2068414;28;20194;-73
2022/11/17 02:18:51;;;;;;;40.27;32.13;;;;;;;12.03;100.00;100007.78;2066245;28;20706;-73
2022/11/17 02:20:16;;;;;;;40.77;33.40;;;;;;;12.02;100.00;100009.00;2067626;28;20837;-73
2022/11/17 02:21:41;;;;;;;42.03;33.20;;;;;;;11.95;100.00;100000.97;2066905;28;20276;-73
2022/11/17 02:23:03;;;;;;;44.57;34.20;;;;;;;11.95;100.00;100006.53;2067402;28;20437;-73
2022/11/17 02:24:06;;;;;;;44.40;34.87;;;;;;;11.96;100.00;100010.84;2065699;28;20445;-73
2022/11/17 02:25:23;;;;;;;48.17;38.77;;;;;;;11.91;100.00;100006.66;2066908;28;20455;-73
2022/11/17 02:26:38;;;;;;;49.97;39.07;;;;;;;11.82;100.00;100003.84;2066440;28;20762;-73
2022/11/17 02:28:00;;;;;;;48.97;39.40;;;;;;;11.80;100.00;99997.97;2067580;28;20531;-73
2022/11/17 02:29:08;;;;;;;46.77;38.53;;;;;;;11.74;100.00;100002.56;2067557;28;20420;-73
2022/11/17 02:30:15;;;;;;;46.33;37.80;;;;;;;11.59;100.00;100001.53;2066693;28;20463;-73
2022/11/17 02:31:35;;;;;;;43.70;37.67;;;;;;;11.59;100.00;99996.00;2068890;28;20888;-73
2022/11/17 02:33:05;;;;;;;49.40;40.67;;;;;;;11.52;100.00;99992.72;2066465;28;20440;-73
2022/11/17 02:34:11;;;;;;;48.13;39.13;;;;;;;11.61;100.00;100003.88;2066553;28;20519;-73
2022/11/17 02:35:25;;;;;;;49.10;39.37;;;;;;;11.56;100.00;100005.22;2068123;28;20483;-73
2022/11/17 02:36:35;;;;;;;46.50;38.40;;;;;;;10.82;100.00;99882.38;2066711;28;20447;-73
2022/11/17 02:37:42;;;;;;;46.30;37.80;;;;;;;11.58;100.00;99997.19;2065997;28;20459;-73
2022/11/17 02:38:47;;;;;;;45.97;37.57;;;;;;;11.59;100.00;99987.66;2066053;28;21107;-73
2022/11/17 02:40:19;;;;;;;46.87;37.63;;;;;;;11.59;100.00;99981.38;2066456;28;20427;-73
2022/11/17 02:41:53;;;;;;;45.00;36.47;;;;;;;11.60;100.00;99994.00;2067926;28;20468;-73
2022/11/17 02:44:35;;;;;;;47.27;36.13;;;;;;;11.57;100.00;99984.56;2067038;28;20420;-73
2022/11/17 02:45:40;;;;;;;46.00;35.57;;;;;;;11.45;100.00;99974.31;2068239;28;20664;-73
2022/11/17 02:46:47;;;;;;;45.00;34.63;;;;;;;11.50;100.00;99982.06;2067768;28;20438;-73
2022/11/17 02:47:50;;;;;;;44.73;35.40;;;;;;;11.44;100.00;99985.88;2066713;28;20519;-73
2022/11/17 02:48:57;;;;;;;43.93;35.43;;;;;;;11.47;100.00;99982.19;2066361;28;20428;-73
2022/11/17 02:50:09;;;;;;;44.70;36.53;;;;;;;11.48;100.00;99976.16;2065695;28;21092;-73
2022/11/17 02:51:14;;;;;;;41.47;34.33;;;;;;;11.49;100.00;99969.41;2066606;28;20875;-72
2022/11/17 02:52:17;;;;;;;42.40;34.50;;;;;;;11.47;100.00;99968.31;2066077;28;20429;-73
2022/11/17 02:53:19;;;;;;;40.87;34.27;;;;;;;10.68;100.00;99848.88;2067865;28;20424;-73
2022/11/17 02:54:26;;;;;;;44.00;34.50;;;;;;;11.39;100.00;99953.94;2067136;28;20432;-74
2022/11/17 02:55:32;;;;;;;42.73;34.53;;;;;;;11.53;100.00;99967.25;2068188;28;20855;-73
2022/11/17 02:56:32;;;;;;;44.37;34.67;;;;;;;11.55;100.00;99978.69;2066655;28;20460;-73
2022/11/17 02:57:35;;;;;;;43.70;35.27;;;;;;;11.61;100.00;99970.56;2065781;28;21028;-73
2022/11/17 02:58:35;;;;;;;41.40;35.40;;;;;;;11.64;100.00;99961.34;2066100;28;20198;-73
2022/11/17 02:59:45;;;;;;;40.33;34.00;;;;;;;11.66;100.00;99962.44;2066286;28;20837;-73
2022/11/17 03:01:09;;;;;;;40.40;33.17;;;;;;;11.69;100.00;99963.53;2068577;28;20678;-73
2022/11/17 03:02:24;;;;;;;41.67;32.97;;;;;;;11.78;100.00;99967.13;2067070;28;20459;-73
2022/11/17 03:03:40;;;;;;;40.33;32.67;;;;;;;11.80;100.00;99955.56;2066374;28;20440;-73
2022/11/17 03:05:04;;;;;;;40.37;33.20;;;;;;;11.81;100.00;99952.34;2066300;28;21166;-73
2022/11/17 03:06:30;;;;;;;39.10;33.40;;;;;;;11.54;100.00;99899.44;2066507;28;20508;-73
2022/11/17 03:07:58;;;;;;;44.07;33.47;;;;;;;11.83;100.00;99935.22;2058376;28;20449;-73
2022/11/17 03:09:03;;;;;;;40.97;31.97;;;;;;;11.82;100.00;99928.09;2066295;28;20440;-73
2022/11/17 03:10:37;;;;;;;38.57;31.80;;;;;;;11.82;100.00;99934.44;2066620;28;20448;-73
2022/11/17 03:11:50;;;;;;;40.20;32.20;;;;;;;11.85;100.00;99952.97;2068648;28;20429;-73
2022/11/17 03:13:01;;;;;;;38.30;32.50;;;;;;;11.85;100.00;99941.88;2067612;28;20427;-73
2022/11/17 03:14:11;;;;;;;39.27;32.33;;;;;;;11.10;100.00;99833.44;2067150;28;20439;-73
2022/11/17 03:15:26;;;;;;;40.47;32.23;;;;;;;11.70;100.00;99946.44;2068072;28;20836;-73
2022/11/17 03:16:37;;;;;;;39.77;33.07;;;;;;;11.67;100.00;99944.56;2066429;28;20428;-73
2022/11/17 03:17:56;;;;;;;39.87;32.10;;;;;;;11.64;100.00;99947.47;2065158;28;20440;-73
2022/11/17 03:19:04;;;;;;;42.13;32.77;;;;;;;11.67;100.00;99949.31;2064152;28;20539;-73
2022/11/17 03:20:15;;;;;;;38.20;31.53;;;;;;;11.71;100.00;99942.41;2066593;28;21429;-73
2022/11/17 03:21:33;;;;;;;40.10;31.80;;;;;;;11.32;100.00;99881.31;2066645;28;20501;-73
2022/11/17 03:22:55;;;;;;;37.70;31.53;;;;;;;11.73;100.00;99937.19;2065746;28;20452;-73
2022/11/17 03:24:02;;;;;;;40.03;31.80;;;;;;;11.74;100.00;99949.81;2066509;28;20464;-73
2022/11/17 03:25:07;;;;;;;41.50;31.83;;;;;;;11.74;100.00;99949.81;2067209;28;20971;-73
2022/11/17 03:26:13;;;;;;;38.37;31.57;;;;;;;11.77;100.00;99942.59;2066862;28;20455;-73
2022/11/17 03:27:20;;;;;;;38.10;31.50;;;;;;;11.79;100.00;99938.13;2066977;28;20974;-73
2022/11/17 03:28:25;;;;;;;36.83;31.23;;;;;;;11.75;100.00;99937.50;2065645;28;20445;-73
2022/11/17 03:29:30;;;;;;;40.43;31.87;;;;;;;10.57;100.00;99757.88;2066033;28;20464;-73
2022/11/17 03:30:34;;;;;;;39.60;32.63;;;;;;;11.72;100.00;99938.41;2065609;28;20497;-73
2022/11/17 03:31:36;;;;;;;37.47;31.83;;;;;;;11.74;100.00;99932.41;2067381;28;20440;-73
2022/11/17 03:32:40;;;;;;;36.30;30.30;;;;;;;11.73;100.00;99925.31;2066726;28;20482;-73
2022/11/17 03:33:44;;;;;;;36.60;30.80;;;;;;;11.73;100.00;99928.09;2066987;28;21034;-73
2022/11/17 03:35:08;;;;;;;39.07;31.57;;;;;;;10.92;100.00;99800.84;2067597;28;20441;-73
2022/11/17 03:36:20;;;;;;;39.97;31.53;;;;;;;11.30;100.00;99865.13;2066855;28;20474;-73
2022/11/17 03:37:24;;;;;;;39.77;31.03;;;;;;;10.61;100.00;99808.34;2067178;28;20433;-73
2022/11/17 03:38:28;;;;;;;38.70;31.90;;;;;;;11.63;100.00;99934.84;2065734;28;20428;-73
2022/11/17 03:39:35;;;;;;;37.57;31.60;;;;;;;11.63;100.00;99926.50;2066148;28;21084;-73
2022/11/17 03:40:44;;;;;;;36.50;31.27;;;;;;;11.40;100.00;99899.22;2066638;28;20516;-73
2022/11/17 03:41:48;;;;;;;37.43;31.57;;;;;;;11.54;100.00;99929.19;2066342;28;20526;-73
2022/11/17 03:42:52;;;;;;;37.93;30.77;;;;;;;11.52;100.00;99926.88;2067365;28;20462;-73
2022/11/17 03:43:56;;;;;;;37.63;30.97;;;;;;;11.48;100.00;99934.56;2065190;28;20458;-73
2022/11/17 03:45:10;;;;;;;41.77;33.47;;;;;;;11.41;100.00;99928.50;2066457;28;20444;-73
2022/11/17 03:46:16;;;;;;;40.40;32.80;;;;;;;11.39;100.00;99930.97;2064816;28;20431;-73
2022/11/17 03:47:19;;;;;;;40.77;33.30;;;;;;;11.39;100.00;99930.97;2066079;28;20975;-73
2022/11/17 03:48:28;;;;;;;38.63;31.53;;;;;;;11.35;100.00;99930.31;2066340;28;20953;-73
2022/11/17 03:49:42;;;;;;;42.93;34.00;;;;;;;11.31;100.00;99936.00;2066312;28;20502;-73
2022/11/17 03:50:46;;;;;;;39.80;32.97;;;;;;;11.11;100.00;99910.63;2065371;28;20452;-73
2022/11/17 03:51:47;;;;;;;41.70;33.27;;;;;;;11.21;100.00;99917.78;2064124;28;20477;-73
2022/11/17 03:52:48;;;;;;;42.10;33.60;;;;;;;11.13;100.00;99902.59;2066126;28;20436;-73
2022/11/17 03:53:48;;;;;;;42.37;33.40;;;;;;;10.95;100.00;99879.53;2065385;28;20620;-73
2022/11/17 03:54:49;;;;;;;44.23;34.23;;;;;;;11.05;100.00;99912.44;2066485;28;20183;-73
2022/11/17 03:56:14;;;;;;;41.90;32.83;;;;;;;11.07;100.00;99912.75;2065733;28;20200;-73
2022/11/17 03:57:25;;;;;;;43.13;33.63;;;;;;;11.03;100.00;99901.03;2065898;28;20715;-73
2022/11/17 03:58:30;;;;;;;40.57;32.70;;;;;;;10.62;100.00;99851.47;2064552;28;20937;-73
2022/11/17 03:59:45;;;;;;;43.03;33.83;;;;;;;11.06;100.00;99916.00;2065126;28;21268;-73
2022/11/17 04:00:50;;;;;;;42.13;33.30;;;;;;;11.07;100.00;99907.19;2065849;28;21188;-73
2022/11/17 04:01:53;;;;;;;41.37;33.07;;;;;;;11.06;100.00;99913.97;2065765;28;20512;-74
2022/11/17 04:02:57;;;;;;;45.23;34.23;;;;;;;11.03;100.00;99909.34;2067674;28;20844;-74
2022/11/17 04:03:59;;;;;;;41.37;32.90;;;;;;;10.89;100.00;99893.22;2065949;28;20567;-73
2022/11/17 04:05:05;;;;;;;40.10;33.33;;;;;;;10.93;100.00;99923.59;2067120;28;20953;-73
2022/11/17 04:06:06;;;;;;;41.20;33.60;;;;;;;9.92;100.00;99772.84;2065994;28;20874;-73
2022/11/17 04:07:06;;;;;;;43.13;34.43;;;;;;;10.81;100.00;99925.19;2065435;28;20483;-73
2022/11/17 04:08:06;;;;;;;43.60;34.13;;;;;;;10.76;100.00;99923.00;2065170;28;20197;-73
2022/11/17 04:09:07;;;;;;;46.90;35.63;;;;;;;10.67;100.00;99924.94;2065684;28;21150;-73
2022/11/17 04:10:11;;;;;;;45.50;35.07;;;;;;;10.66;100.00;99920.63;2066504;28;20924;-73
2022/11/17 04:16:28;;;;;;;46.77;35.47;;;;;;;10.48;100.00;99928.75;2065313;28;20425;-73
2022/11/17 04:17:28;;;;;;;41.80;34.40;;;;;;;10.48;100.00;99924.00;2066078;28;20444;-73
2022/11/17 04:18:29;;;;;;;48.40;36.03;;;;;;;9.83;100.00;99839.19;2065410;28;20545;-73
2022/11/17 04:19:29;;;;;;;44.47;35.80;;;;;;;10.42;100.00;99927.78;2063665;28;20233;-73
2022/11/17 04:20:34;;;;;;;48.80;36.50;;;;;;;10.43;100.00;99926.56;2065938;28;20286;-73
2022/11/17 04:21:35;;;;;;;43.93;34.57;;;;;;;9.90;100.00;99842.47;2065424;28;20187;-73
2022/11/17 04:22:35;;;;;;;45.40;35.77;;;;;;;10.05;100.00;99867.75;2067494;28;20969;-73
2022/11/17 04:23:36;;;;;;;47.50;36.27;;;;;;;9.48;100.00;99776.75;2066402;28;20251;-73
2022/11/17 04:24:36;;;;;;;45.20;34.83;;;;;;;10.02;100.00;99863.84;2066574;28;20580;-73
2022/11/17 04:28:38;;;;;;;43.67;34.00;;;;;;;10.40;100.00;99928.22;2066814;28;20838;-73
2022/11/17 04:29:38;;;;;;;45.70;35.27;;;;;;;10.29;100.00;99905.66;2065859;28;20423;-73
2022/11/17 04:30:39;;;;;;;47.80;35.53;;;;;;;10.41;100.00;99924.22;2067929;28;20509;-72
2022/11/17 04:31:39;;;;;;;46.87;36.13;;;;;;;9.61;100.00;99811.47;2065293;28;20662;-73
2022/11/17 04:32:40;;;;;;;49.47;37.60;;;;;;;10.38;100.00;99924.34;2066567;28;20275;-73
2022/11/17 04:33:45;;;;;;;45.57;35.53;;;;;;;10.39;100.00;99914.81;2065742;28;20664;-72
2022/11/17 04:34:47;;;;;;;51.47;35.93;;;;;;;10.39;100.00;99921.13;2065236;28;20204;-73
2022/11/17 04:35:50;;;;;;;45.90;35.50;;;;;;;10.44;100.00;99925.31;2065814;28;20462;-73
2022/11/17 04:36:50;;;;;;;49.30;36.07;;;;;;;10.48;100.00;99920.44;2065515;28;20448;-73
2022/11/17 04:37:51;;;;;;;47.27;36.03;;;;;;;10.48;100.00;99926.78;2065722;28;20538;-73
2022/11/17 04:38:54;;;;;;;46.30;35.73;;;;;;;10.48;100.00;99921.22;2066552;28;20190;-72
2022/11/17 04:39:54;;;;;;;48.40;36.43;;;;;;;10.33;100.00;99917.41;2064952;28;20227;-73
2022/11/17 04:42:27;;;;;;;49.47;37.07;;;;;;;10.22;100.00;99896.81;2066757;28;20190;-73
2022/11/17 04:43:27;;;;;;;49.57;36.83;;;;;;;10.33;100.00;99922.16;2064617;28;20941;-73
2022/11/17 04:44:30;;;;;;;51.93;38.17;;;;;;;10.34;100.00;99923.69;2065267;28;20868;-73
2022/11/17 04:45:33;;;;;;;49.03;37.80;;;;;;;10.28;100.00;99920.72;2066646;28;20729;-74
2022/11/17 04:46:35;;;;;;;51.57;37.97;;;;;;;10.31;100.00;99924.59;2064015;28;20543;-73
2022/11/17 04:47:35;;;;;;;50.63;38.70;;;;;;;10.25;100.00;99918.09;2066259;28;20446;-74
2022/11/17 04:48:36;;;;;;;48.27;36.33;;;;;;;10.25;100.00;99915.31;2065262;28;20451;-73
2022/11/17 04:49:36;;;;;;;50.83;37.77;;;;;;;10.42;100.00;99928.56;2065461;28;20588;-73
2022/11/17 04:50:37;;;;;;;52.30;37.87;;;;;;;10.52;100.00;99924.66;2065912;28;20320;-73
2022/11/17 04:51:37;;;;;;;44.37;35.50;;;;;;;10.53;100.00;99930.94;2066583;28;20331;-73
2022/11/17 04:52:38;;;;;;;51.73;39.60;;;;;;;10.51;100.00;99922.31;2065676;28;20680;-73
2022/11/17 04:53:39;;;;;;;50.20;38.27;;;;;;;10.46;100.00;99922.91;2065758;28;20195;-73
2022/11/17 04:54:39;;;;;;;51.37;38.27;;;;;;;10.46;100.00;99929.19;2066359;28;20284;-73
2022/11/17 04:55:39;;;;;;;54.23;39.70;;;;;;;10.50;100.00;99920.78;2064929;28;20680;-73
2022/11/17 04:56:40;;;;;;;54.77;39.73;;;;;;;10.51;100.00;99928.63;2064013;28;20650;-66
2022/11/17 04:57:40;;;;;;;54.87;41.40;;;;;;;10.09;100.00;99862.88;2066218;28;20200;-70
2022/11/17 04:58:41;;;;;;;58.27;42.40;;;;;;;10.50;100.00;99926.31;2065132;28;20235;-70
2022/11/17 04:59:42;;;;;;;57.93;42.43;;;;;;;10.42;100.00;99934.09;2062927;28;20201;-70
2022/11/17 05:00:42;;;;;;;57.40;42.27;;;;;;;10.37;100.00;99922.81;2066645;28;22039;-67
2022/11/17 05:01:43;;;;;;;56.80;42.10;;;;;;;10.35;100.00;99923.25;2064979;28;20197;-68
2022/11/17 05:02:44;;;;;;;59.10;41.83;;;;;;;10.08;100.00;99889.75;2063731;28;20332;-69
2022/11/17 05:03:47;;;;;;;61.20;44.43;;;;;;;10.31;100.00;99930.13;2062505;28;20661;-69
2022/11/17 05:04:57;;;;;;;63.73;42.57;;;;;;;10.20;100.00;99941.56;2064937;28;20573;-67
2022/11/17 05:05:57;;;;;;;63.27;43.77;;;;;;;10.18;100.00;99941.25;2065659;28;20512;-70
2022/11/17 05:06:57;;;;;;;60.77;43.50;;;;;;;10.16;100.00;99952.00;2065972;28;20458;-72
2022/11/17 05:07:58;;;;;;;64.33;44.20;;;;;;;10.10;100.00;99948.22;2064285;28;21046;-72
2022/11/17 05:09:02;;;;;;;58.13;42.73;;;;;;;9.85;100.00;99915.00;2062630;28;20227;-69
2022/11/17 05:10:03;;;;;;;60.53;42.00;;;;;;;10.08;100.00;99953.44;2064610;28;20207;-71
2022/11/17 05:13:43;;;;;;;63.70;41.90;;;;;;;9.09;100.00;99832.47;2065235;28;20407;-71
2022/11/17 05:14:46;;;;;;;63.07;43.03;;;;;;;10.05;100.00;99967.41;2065588;28;20436;-70
2022/11/17 05:17:09;;;;;;;64.97;43.63;;;;;;;10.09;100.00;99977.13;2064969;28;20399;-71
2022/11/17 05:18:10;;;;;;;70.40;46.03;;;;;;;9.96;100.00;99979.09;2063163;28;20439;-67
2022/11/17 05:19:35;;;;;;;71.47;46.27;;;;;;;9.98;100.00;100009.09;2065847;28;21066;-64